Ursa Minor — ICGH — position and weather

sailwx.info

Track history (hours):
 
Tides and Currents Weather Stations Pressure Air Temp Water Temp Dewpoint Dewpoint Depression Visibility Wind Speed Wind Dir Waves Ship Positions

Ursa Minor

Last reported at 2016-Dec-08 00:33 UTC. Time now 2016-Dec-08 02:09 UTC.
Position N 44°17' E 009°02'.

Length 205 m; draft 8.3 m.

Type: Ship. MMSI: 247082300.

Date/timePositionNaut miles runAvg speedWind from/ knotsBaromVisibWave heightAir tempDewpointWater temp
2016-Dec-08 00:33N 44°17' E 009°02'1010.5
2016-Dec-07 23:33N 44°24' E 008°52'0 0.2
2016-Dec-07 22:33N 44°24' E 008°52'0 0.0
2016-Dec-07 21:33N 44°24' E 008°52'0 0.0
2016-Dec-07 20:33N 44°24' E 008°52'0 0.0
2016-Dec-07 19:33N 44°24' E 008°52'0 0.0
2016-Dec-07 18:33N 44°24' E 008°52'0 0.2
2016-Dec-07 17:33N 44°24' E 008°52'3 3.2
2016-Dec-07 16:33N 44°23' E 008°56'1010.1
2016-Dec-07 15:34N 44°15' E 009°05'4711.4
2016-Dec-07 11:25N 43°39' E 009°49'1011.5
2016-Dec-07 10:33N 43°32' E 009°58'1111.4
2016-Dec-07 09:33N 43°23' E 010°07'1111.5
2016-Dec-07 08:33N 43°13' E 010°14'1111.1
2016-Dec-07 07:33N 43°03' E 010°22'1211.3
2016-Dec-07 06:32N 42°53' E 010°30'33211.4
2016-Dec-06 01:20N 38°44' E 015°21'1111.3
2016-Dec-06 00:22N 38°35' E 015°29'911.2
2016-Dec-05 23:33N 38°28' E 015°36'1111.3
2016-Dec-05 22:33N 38°18' E 015°43'10 9.6
2016-Dec-05 21:33N 38°10' E 015°37'1111.2
2016-Dec-05 20:33N 37°59' E 015°38'1110.5
2016-Dec-05 19:29N 37°53' E 015°50'  
2016-Dec-03 11:32N 40°19' E 017°08'1111.2
2016-Dec-03 10:33N 40°08' E 017°09'149 9.7
2016-Dec-02 19:12N 37°54' E 015°45'710.9
2016-Dec-02 18:34N 37°59' E 015°38'1111.5
2016-Dec-02 17:33N 38°10' E 015°35'9 8.7
2016-Dec-02 16:33N 38°18' E 015°41'1211.9
2016-Dec-02 15:32N 38°28' E 015°33'1111.6
2016-Dec-02 14:33N 38°38' E 015°26'1211.6
2016-Dec-02 13:33N 38°48' E 015°18'36311.3
2016-Dec-01 05:33N 43°24' E 010°06'1111.4
2016-Dec-01 04:33N 43°33' E 009°57'1211.5
2016-Dec-01 03:33N 43°42' E 009°46'1111.3
2016-Dec-01 02:33N 43°50' E 009°36'1110.9
2016-Dec-01 01:34N 43°58' E 009°25'1111.3
2016-Dec-01 00:33N 44°07' E 009°15'1111.3
2016-Nov-30 23:33N 44°15' E 009°04'1111.3
2016-Nov-30 22:33N 44°23' E 008°54'2 1.5
2016-Nov-30 21:33N 44°24' E 008°52'0 0.0
2016-Nov-30 20:32N 44°24' E 008°52'0 0.0
2016-Nov-30 19:23N 44°24' E 008°52'0 0.0
2016-Nov-30 18:29N 44°24' E 008°52'0 0.0
2016-Nov-30 17:29N 44°24' E 008°52'0 0.0
2016-Nov-30 16:29N 44°24' E 008°52'0 0.0
2016-Nov-30 15:26N 44°24' E 008°52'0 0.0
2016-Nov-30 14:23N 44°24' E 008°52'0 0.0
2016-Nov-30 13:26N 44°24' E 008°52'0 0.0
2016-Nov-30 12:29N 44°24' E 008°52'0 0.0
2016-Nov-30 11:29N 44°24' E 008°52'0 0.0
2016-Nov-30 10:17N 44°24' E 008°52'0 0.0
2016-Nov-30 09:29N 44°24' E 008°52'0 0.0
2016-Nov-30 08:29N 44°24' E 008°52'0 0.0
2016-Nov-30 07:32N 44°24' E 008°52'0 0.0
2016-Nov-30 06:32N 44°24' E 008°52'0 0.0
2016-Nov-30 05:32N 44°24' E 008°52'0 0.0
2016-Nov-30 04:32N 44°24' E 008°52'0 0.0
2016-Nov-30 03:32N 44°24' E 008°52'0 0.0
2016-Nov-30 02:32N 44°24' E 008°52'0 0.0
2016-Nov-30 01:32N 44°24' E 008°52'0 0.0
2016-Nov-30 00:32N 44°24' E 008°52'0 0.0
2016-Nov-29 23:32N 44°24' E 008°52'0 0.0
2016-Nov-29 22:32N 44°24' E 008°52'0 0.0
2016-Nov-29 21:32N 44°24' E 008°52'0 0.0
2016-Nov-29 20:32N 44°24' E 008°52'0 0.0
2016-Nov-29 19:32N 44°24' E 008°52'0 0.0
2016-Nov-29 18:32N 44°24' E 008°52'0 0.0
2016-Nov-29 17:20N 44°24' E 008°52'0 0.0
2016-Nov-29 16:20N 44°24' E 008°52'0 0.0
2016-Nov-29 15:20N 44°24' E 008°52'0 0.0
2016-Nov-29 14:26N 44°24' E 008°52'0 0.0
2016-Nov-29 13:23N 44°24' E 008°52'0 0.0
2016-Nov-29 12:26N 44°24' E 008°52'0 0.0
2016-Nov-29 11:26N 44°24' E 008°52'0 0.0
2016-Nov-29 10:26N 44°24' E 008°52'0 0.0
2016-Nov-29 09:32N 44°24' E 008°52'0 0.1
2016-Nov-29 08:34N 44°24' E 008°52'0 0.1
2016-Nov-29 07:34N 44°24' E 008°52'5 5.2
2016-Nov-29 06:33N 44°22' E 008°59'0 0.3
2016-Nov-29 05:33N 44°22' E 008°59'3 3.2
2016-Nov-29 04:33N 44°19' E 009°02'1111.0
2016-Nov-29 03:33N 44°12' E 009°14'1111.4
2016-Nov-29 02:33N 44°05' E 009°26'1111.4
2016-Nov-29 01:33N 43°59' E 009°39'1111.3
2016-Nov-29 00:33N 43°52' E 009°52'1111.1
2016-Nov-28 23:33N 43°47' E 010°06'1111.2
2016-Nov-28 22:33N 43°36' E 010°05'1110.6
2016-Nov-28 21:33N 43°25' E 010°08'1111.3
2016-Nov-28 20:33N 43°15' E 010°15'18511.3
2016-Nov-28 04:10N 41°02' E 013°09'711.8
2016-Nov-28 03:33N 40°58' E 013°17'1211.6
2016-Nov-28 02:33N 40°50' E 013°29'1211.8
2016-Nov-28 01:33N 40°43' E 013°41'1211.8
2016-Nov-28 00:33N 40°36' E 013°53'  
Track history (hours):
 
Tides and Currents Weather Stations Pressure Air Temp Water Temp Dewpoint Dewpoint Depression Visibility Wind Speed Wind Dir Waves Ship Positions

Ursa Minor

Last reported at 2016-Dec-08 00:33 UTC. Time now 2016-Dec-08 02:09 UTC.
Position N 44°17' E 009°02'.

Length 205 m; draft 8.3 m.

Type: Ship. MMSI: 247082300.

Date/timePositionNaut miles runAvg speedWind from/ knotsBaromVisibWave heightAir tempDewpointWater temp
2016-Dec-08 00:33N 44°17' E 009°02'1010.5
2016-Dec-07 23:33N 44°24' E 008°52'0 0.2
2016-Dec-07 22:33N 44°24' E 008°52'0 0.0
2016-Dec-07 21:33N 44°24' E 008°52'0 0.0
2016-Dec-07 20:33N 44°24' E 008°52'0 0.0
2016-Dec-07 19:33N 44°24' E 008°52'0 0.0
2016-Dec-07 18:33N 44°24' E 008°52'0 0.2
2016-Dec-07 17:33N 44°24' E 008°52'3 3.2
2016-Dec-07 16:33N 44°23' E 008°56'1010.1
2016-Dec-07 15:34N 44°15' E 009°05'4711.4
2016-Dec-07 11:25N 43°39' E 009°49'1011.5
2016-Dec-07 10:33N 43°32' E 009°58'1111.4
2016-Dec-07 09:33N 43°23' E 010°07'1111.5
2016-Dec-07 08:33N 43°13' E 010°14'1111.1
2016-Dec-07 07:33N 43°03' E 010°22'1211.3
2016-Dec-07 06:32N 42°53' E 010°30'33211.4
2016-Dec-06 01:20N 38°44' E 015°21'1111.3
2016-Dec-06 00:22N 38°35' E 015°29'911.2
2016-Dec-05 23:33N 38°28' E 015°36'1111.3
2016-Dec-05 22:33N 38°18' E 015°43'10 9.6
2016-Dec-05 21:33N 38°10' E 015°37'1111.2
2016-Dec-05 20:33N 37°59' E 015°38'1110.5
2016-Dec-05 19:29N 37°53' E 015°50'  
2016-Dec-03 11:32N 40°19' E 017°08'1111.2
2016-Dec-03 10:33N 40°08' E 017°09'149 9.7
2016-Dec-02 19:12N 37°54' E 015°45'710.9
2016-Dec-02 18:34N 37°59' E 015°38'1111.5
2016-Dec-02 17:33N 38°10' E 015°35'9 8.7
2016-Dec-02 16:33N 38°18' E 015°41'1211.9
2016-Dec-02 15:32N 38°28' E 015°33'1111.6
2016-Dec-02 14:33N 38°38' E 015°26'1211.6
2016-Dec-02 13:33N 38°48' E 015°18'36311.3
2016-Dec-01 05:33N 43°24' E 010°06'1111.4
2016-Dec-01 04:33N 43°33' E 009°57'1211.5
2016-Dec-01 03:33N 43°42' E 009°46'1111.3
2016-Dec-01 02:33N 43°50' E 009°36'1110.9
2016-Dec-01 01:34N 43°58' E 009°25'1111.3
2016-Dec-01 00:33N 44°07' E 009°15'1111.3
2016-Nov-30 23:33N 44°15' E 009°04'1111.3
2016-Nov-30 22:33N 44°23' E 008°54'2 1.5
2016-Nov-30 21:33N 44°24' E 008°52'0 0.0
2016-Nov-30 20:32N 44°24' E 008°52'0 0.0
2016-Nov-30 19:23N 44°24' E 008°52'0 0.0
2016-Nov-30 18:29N 44°24' E 008°52'0 0.0
2016-Nov-30 17:29N 44°24' E 008°52'0 0.0
2016-Nov-30 16:29N 44°24' E 008°52'0 0.0
2016-Nov-30 15:26N 44°24' E 008°52'0 0.0
2016-Nov-30 14:23N 44°24' E 008°52'0 0.0
2016-Nov-30 13:26N 44°24' E 008°52'0 0.0
2016-Nov-30 12:29N 44°24' E 008°52'0 0.0
2016-Nov-30 11:29N 44°24' E 008°52'0 0.0
2016-Nov-30 10:17N 44°24' E 008°52'0 0.0
2016-Nov-30 09:29N 44°24' E 008°52'0 0.0
2016-Nov-30 08:29N 44°24' E 008°52'0 0.0
2016-Nov-30 07:32N 44°24' E 008°52'0 0.0
2016-Nov-30 06:32N 44°24' E 008°52'0 0.0
2016-Nov-30 05:32N 44°24' E 008°52'0 0.0
2016-Nov-30 04:32N 44°24' E 008°52'0 0.0
2016-Nov-30 03:32N 44°24' E 008°52'0 0.0
2016-Nov-30 02:32N 44°24' E 008°52'0 0.0
2016-Nov-30 01:32N 44°24' E 008°52'0 0.0
2016-Nov-30 00:32N 44°24' E 008°52'0 0.0
2016-Nov-29 23:32N 44°24' E 008°52'0 0.0
2016-Nov-29 22:32N 44°24' E 008°52'0 0.0
2016-Nov-29 21:32N 44°24' E 008°52'0 0.0
2016-Nov-29 20:32N 44°24' E 008°52'0 0.0
2016-Nov-29 19:32N 44°24' E 008°52'0 0.0
2016-Nov-29 18:32N 44°24' E 008°52'0 0.0
2016-Nov-29 17:20N 44°24' E 008°52'0 0.0
2016-Nov-29 16:20N 44°24' E 008°52'0 0.0
2016-Nov-29 15:20N 44°24' E 008°52'0 0.0
2016-Nov-29 14:26N 44°24' E 008°52'0 0.0
2016-Nov-29 13:23N 44°24' E 008°52'0 0.0
2016-Nov-29 12:26N 44°24' E 008°52'0 0.0
2016-Nov-29 11:26N 44°24' E 008°52'0 0.0
2016-Nov-29 10:26N 44°24' E 008°52'0 0.0
2016-Nov-29 09:32N 44°24' E 008°52'0 0.1
2016-Nov-29 08:34N 44°24' E 008°52'0 0.1
2016-Nov-29 07:34N 44°24' E 008°52'5 5.2
2016-Nov-29 06:33N 44°22' E 008°59'0 0.3
2016-Nov-29 05:33N 44°22' E 008°59'3 3.2
2016-Nov-29 04:33N 44°19' E 009°02'1111.0
2016-Nov-29 03:33N 44°12' E 009°14'1111.4
2016-Nov-29 02:33N 44°05' E 009°26'1111.4
2016-Nov-29 01:33N 43°59' E 009°39'1111.3
2016-Nov-29 00:33N 43°52' E 009°52'1111.1
2016-Nov-28 23:33N 43°47' E 010°06'1111.2
2016-Nov-28 22:33N 43°36' E 010°05'1110.6
2016-Nov-28 21:33N 43°25' E 010°08'1111.3
2016-Nov-28 20:33N 43°15' E 010°15'18511.3
2016-Nov-28 04:10N 41°02' E 013°09'711.8
2016-Nov-28 03:33N 40°58' E 013°17'1211.6
2016-Nov-28 02:33N 40°50' E 013°29'1211.8
2016-Nov-28 01:33N 40°43' E 013°41'1211.8
2016-Nov-28 00:33N 40°36' E 013°53'  

Dump ship's entire track history